Time;durP1;ratioP1;P1;durP2;ratioP2;P2;SDS_P1;SDS_P2;PMS_P1;PMS_P2;Temp;Humidity;BMP_temperature;BMP_pressure;BME280_temperature;BME280_humidity;BME280_pressure;Samples;Min_cycle;Max_cycle;Signal;HPM_P1;HPM_P2
2021/12/27 00:02:22;;;;;;;5.70;3.20;;;-6.60;99.90;;;;;;4994515;28;20173;-72
2021/12/27 00:04:47;;;;;;;5.50;3.47;;;-6.60;99.90;;;;;;4994560;28;20789;-72
2021/12/27 00:07:14;;;;;;;3.97;3.67;;;-6.60;99.90;;;;;;4994856;28;20187;-73
2021/12/27 00:09:40;;;;;;;4.90;4.50;;;-6.60;99.90;;;;;;4994142;28;20204;-73
2021/12/27 00:12:06;;;;;;;6.37;5.03;;;-6.60;99.90;;;;;;4993897;28;20173;-73
2021/12/27 00:14:32;;;;;;;10.88;6.68;;;-6.60;99.90;;;;;;4992222;28;20868;-73
2021/12/27 00:16:57;;;;;;;4.00;3.80;;;-6.60;99.90;;;;;;4993535;28;20181;-73
2021/12/27 00:19:23;;;;;;;8.90;5.97;;;-6.60;99.90;;;;;;4990329;28;20259;-71
2021/12/27 00:21:48;;;;;;;5.23;4.20;;;-6.60;99.90;;;;;;4973435;28;20225;-73
2021/12/27 00:24:14;;;;;;;11.83;7.57;;;-6.60;99.90;;;;;;4972944;28;20201;-72
2021/12/27 00:26:39;;;;;;;5.53;5.03;;;-6.60;99.90;;;;;;4972882;28;20176;-72
2021/12/27 00:29:05;;;;;;;15.03;6.80;;;-6.70;99.90;;;;;;4973171;28;20539;-73
2021/12/27 00:31:30;;;;;;;8.53;6.20;;;-6.70;99.90;;;;;;4973140;28;20247;-72
2021/12/27 00:33:56;;;;;;;8.10;6.37;;;-6.70;99.90;;;;;;4973008;28;20173;-73
2021/12/27 00:36:21;;;;;;;7.20;4.63;;;-6.60;99.90;;;;;;4972884;28;20182;-72
2021/12/27 00:38:47;;;;;;;14.50;3.53;;;-6.60;99.90;;;;;;4973140;28;20197;-72
2021/12/27 00:41:12;;;;;;;9.20;5.00;;;-6.60;99.90;;;;;;4972929;28;20169;-72
2021/12/27 00:43:37;;;;;;;6.10;5.60;;;-6.60;99.90;;;;;;4971637;28;20169;-73
2021/12/27 00:46:03;;;;;;;4.27;3.90;;;-6.60;99.90;;;;;;4972792;28;20672;-72
2021/12/27 00:48:29;;;;;;;5.73;4.97;;;-6.70;99.90;;;;;;4973130;28;20200;-71
2021/12/27 00:50:55;;;;;;;5.10;4.70;;;-6.70;99.90;;;;;;4973184;28;20185;-72
2021/12/27 00:53:20;;;;;;;6.65;6.03;;;-6.70;99.90;;;;;;4974480;28;20253;-73
2021/12/27 00:55:46;;;;;;;3.57;3.27;;;-6.70;99.90;;;;;;4974098;28;20228;-74
2021/12/27 00:58:11;;;;;;;5.00;4.50;;;-6.70;99.90;;;;;;4974327;28;20198;-71
2021/12/27 01:00:37;;;;;;;8.67;4.57;;;-6.70;99.90;;;;;;4972698;28;20177;-71
2021/12/27 01:03:03;;;;;;;4.13;3.73;;;-6.70;99.90;;;;;;4972874;28;20515;-72
2021/12/27 01:05:29;;;;;;;7.40;6.43;;;-6.70;99.90;;;;;;4972423;28;20230;-71
2021/12/27 01:07:54;;;;;;;6.77;6.47;;;-6.60;99.90;;;;;;4972310;28;20170;-72
2021/12/27 01:10:42;;;;;;;9.53;4.70;;;-6.70;99.90;;;;;;4972499;28;20174;-73
2021/12/27 01:13:20;;;;;;;6.10;5.25;;;-6.70;99.90;;;;;;4972250;28;20671;-72
2021/12/27 01:18:18;;;;;;;11.18;3.05;;;-6.60;99.90;;;;;;4972564;28;20204;-71
2021/12/27 01:20:44;;;;;;;6.13;5.70;;;-6.60;99.90;;;;;;4972396;28;20569;-72
2021/12/27 01:23:10;;;;;;;4.55;4.32;;;-6.60;99.90;;;;;;4972553;28;20248;-73
2021/12/27 01:25:36;;;;;;;4.75;3.97;;;-6.60;99.90;;;;;;4972915;28;20352;-72
2021/12/27 01:28:02;;;;;;;4.07;3.80;;;-6.60;99.90;;;;;;4972287;28;20663;-72
2021/12/27 01:30:28;;;;;;;6.90;5.70;;;-6.60;99.90;;;;;;4975405;28;20180;-72
2021/12/27 01:32:58;;;;;;;4.25;4.05;;;-6.60;99.90;;;;;;4972246;28;20416;-71
2021/12/27 01:35:24;;;;;;;9.30;8.30;;;-6.60;99.90;;;;;;4972155;28;20194;-71
2021/12/27 01:37:51;;;;;;;4.85;2.55;;;-6.60;99.90;;;;;;4972363;28;20201;-72
2021/12/27 01:40:19;;;;;;;7.13;4.97;;;-6.60;99.90;;;;;;4972320;28;20546;-72
2021/12/27 01:43:05;;;;;;;9.30;7.47;;;-6.60;99.90;;;;;;4972243;28;20170;-72
2021/12/27 01:45:32;;;;;;;7.53;6.93;;;-6.60;99.90;;;;;;4972021;28;20193;-73
2021/12/27 01:47:58;;;;;;;3.92;3.63;;;-6.50;99.90;;;;;;4971995;28;20256;-71
2021/12/27 01:50:24;;;;;;;4.60;4.20;;;-6.50;99.90;;;;;;4972114;28;20165;-72
2021/12/27 01:52:50;;;;;;;8.18;6.80;;;-6.50;99.90;;;;;;4971942;28;20169;-72
2021/12/27 01:55:16;;;;;;;14.50;5.30;;;-6.50;99.90;;;;;;4971926;28;20272;-71
2021/12/27 01:57:42;;;;;;;14.43;6.00;;;-6.50;99.90;;;;;;4971982;28;20421;-72
2021/12/27 02:00:08;;;;;;;4.55;4.35;;;-6.40;99.90;;;;;;4971818;28;21057;-73
2021/12/27 02:02:34;;;;;;;6.45;4.28;;;-6.40;99.90;;;;;;4971913;28;20166;-72
2021/12/27 02:04:59;;;;;;;9.70;5.43;;;-6.40;99.90;;;;;;4971665;28;20719;-70
2021/12/27 02:07:24;;;;;;;4.63;4.33;;;-6.40;99.90;;;;;;4971860;28;20700;-71
2021/12/27 02:10:02;;;;;;;3.87;3.57;;;-6.40;99.90;;;;;;4971834;28;20178;-72
2021/12/27 02:12:30;;;;;;;7.82;7.15;;;-6.40;99.90;;;;;;4971794;28;20240;-72
2021/12/27 02:14:55;;;;;;;6.10;5.63;;;-6.40;99.90;;;;;;4972074;28;20252;-72
2021/12/27 02:17:21;;;;;;;9.77;8.30;;;-6.40;99.90;;;;;;4971898;28;20178;-72
2021/12/27 02:19:47;;;;;;;18.30;10.20;;;-6.40;99.90;;;;;;4971752;28;20201;-72
2021/12/27 02:22:12;;;;;;;12.02;8.82;;;-6.40;99.90;;;;;;4971492;28;20174;-73
2021/12/27 02:24:40;;;;;;;12.23;10.67;;;-6.40;99.90;;;;;;4971686;28;20699;-70
2021/12/27 02:27:06;;;;;;;18.88;17.33;;;-6.40;99.90;;;;;;4971647;28;20185;-71
2021/12/27 02:29:32;;;;;;;23.90;16.30;;;-6.40;99.90;;;;;;4970462;28;20195;-72
2021/12/27 02:31:57;;;;;;;17.73;12.77;;;-6.30;99.90;;;;;;4974884;28;20770;-72
2021/12/27 02:34:22;;;;;;;10.90;9.17;;;-6.40;99.90;;;;;;4971656;28;20313;-73
2021/12/27 02:36:49;;;;;;;20.53;15.63;;;-6.30;99.90;;;;;;4971680;28;20173;-71
2021/12/27 02:39:14;;;;;;;29.23;14.38;;;-6.30;99.90;;;;;;4971580;28;20233;-73
2021/12/27 02:41:40;;;;;;;12.40;11.37;;;-6.30;99.90;;;;;;4971841;28;20181;-72
2021/12/27 02:44:05;;;;;;;22.40;12.60;;;-6.30;99.90;;;;;;4974196;28;20256;-73
2021/12/27 02:46:31;;;;;;;17.67;13.00;;;-6.20;99.90;;;;;;4975269;28;20184;-73
2021/12/27 02:48:57;;;;;;;29.93;13.53;;;-6.20;99.90;;;;;;4984284;28;20255;-74
2021/12/27 02:51:23;;;;;;;11.80;9.30;;;-6.20;99.90;;;;;;4994592;28;20563;-72
2021/12/27 02:53:49;;;;;;;18.47;12.40;;;-6.20;99.90;;;;;;4994277;28;20595;-73
2021/12/27 02:56:17;;;;;;;15.27;9.63;;;-6.10;99.90;;;;;;4994092;28;20236;-73
2021/12/27 02:58:43;;;;;;;11.00;10.13;;;-6.10;99.90;;;;;;4994148;28;20570;-72
2021/12/27 03:01:14;;;;;;;10.17;8.20;;;-6.10;99.90;;;;;;4994291;28;20165;-73
2021/12/27 03:03:40;;;;;;;15.93;8.75;;;-6.10;99.90;;;;;;4993960;28;20778;-71
2021/12/27 03:06:08;;;;;;;5.25;5.05;;;-6.00;99.90;;;;;;4993683;28;20212;-71
2021/12/27 03:08:34;;;;;;;9.57;8.57;;;-6.00;99.90;;;;;;4994385;28;20736;-73
2021/12/27 03:11:01;;;;;;;8.23;7.50;;;-6.00;99.90;;;;;;4994255;28;20632;-72
2021/12/27 03:13:32;;;;;;;8.13;7.57;;;-6.00;99.90;;;;;;4994152;28;20658;-72
2021/12/27 03:16:02;;;;;;;10.27;8.73;;;-6.00;99.90;;;;;;4992335;28;20248;-72
2021/12/27 03:18:28;;;;;;;12.15;7.00;;;-6.00;99.90;;;;;;4993830;28;20544;-73
2021/12/27 03:20:54;;;;;;;9.90;9.20;;;-5.90;99.90;;;;;;4993980;28;20169;-71
2021/12/27 03:23:21;;;;;;;7.93;7.20;;;-5.90;99.90;;;;;;4993971;28;20196;-72
2021/12/27 03:25:48;;;;;;;9.90;7.65;;;-5.90;99.90;;;;;;4993534;28;20189;-72
2021/12/27 03:28:14;;;;;;;4.22;3.15;;;-5.90;99.90;;;;;;4993779;28;20221;-72
2021/12/27 03:30:39;;;;;;;22.40;7.10;;;-5.90;99.90;;;;;;4993652;28;20231;-72
2021/12/27 03:33:06;;;;;;;19.83;5.93;;;-5.90;99.90;;;;;;4993531;28;20409;-71
2021/12/27 03:35:37;;;;;;;4.47;4.07;;;-5.90;99.90;;;;;;4993309;28;20193;-71
2021/12/27 03:38:08;;;;;;;5.88;5.47;;;-5.90;99.90;;;;;;4993568;28;20195;-71
2021/12/27 03:40:34;;;;;;;4.32;4.03;;;-5.90;99.90;;;;;;4993488;28;20176;-72
2021/12/27 03:43:00;;;;;;;10.15;6.65;;;-5.90;99.90;;;;;;4993417;28;20174;-71
2021/12/27 03:45:29;;;;;;;10.90;8.80;;;-5.90;99.90;;;;;;4978203;28;20656;-70
2021/12/27 03:47:55;;;;;;;10.00;8.48;;;-5.90;99.90;;;;;;4973759;28;20217;-71
2021/12/27 03:50:24;;;;;;;6.18;5.55;;;-5.90;99.90;;;;;;4974135;28;20181;-73
2021/12/27 03:52:50;;;;;;;4.22;3.92;;;-5.90;99.90;;;;;;4973856;28;20189;-71
2021/12/27 03:55:16;;;;;;;5.25;4.53;;;-5.80;99.90;;;;;;4973352;28;20296;-72
2021/12/27 03:57:50;;;;;;;41.60;5.03;;;-5.80;99.90;;;;;;4973841;28;20174;-72
2021/12/27 04:02:49;;;;;;;7.70;7.07;;;-5.90;99.90;;;;;;4973736;28;20547;-71
2021/12/27 04:05:15;;;;;;;5.80;5.35;;;-5.90;99.90;;;;;;4972594;28;20680;-72
2021/12/27 04:07:43;;;;;;;3.53;3.43;;;-5.80;99.90;;;;;;4973633;28;20216;-72
2021/12/27 04:10:10;;;;;;;4.40;4.20;;;-5.80;99.90;;;;;;4973513;28;20417;-72
2021/12/27 04:12:36;;;;;;;5.18;4.80;;;-5.90;99.90;;;;;;4973415;28;20173;-72
2021/12/27 04:15:04;;;;;;;7.03;6.43;;;-5.90;99.90;;;;;;4973379;28;20200;-72
2021/12/27 04:17:29;;;;;;;15.65;4.05;;;-5.80;99.90;;;;;;4973395;28;20177;-72
2021/12/27 04:19:55;;;;;;;7.20;6.80;;;-5.80;99.90;;;;;;4973424;28;20205;-73
2021/12/27 04:22:20;;;;;;;5.30;5.00;;;-5.80;99.90;;;;;;4973482;28;20249;-72
2021/12/27 04:24:46;;;;;;;8.37;5.83;;;-5.80;99.90;;;;;;4973092;28;20644;-72
2021/12/27 04:27:11;;;;;;;6.70;5.27;;;-5.80;99.90;;;;;;4973614;28;20289;-72
2021/12/27 04:29:37;;;;;;;6.73;5.77;;;-5.70;99.90;;;;;;4973210;28;20182;-72
2021/12/27 04:32:03;;;;;;;10.63;9.67;;;-5.70;99.90;;;;;;4973140;28;20683;-72
2021/12/27 04:34:28;;;;;;;5.63;5.07;;;-5.70;99.90;;;;;;4973062;28;20194;-72
2021/12/27 04:36:54;;;;;;;3.40;3.10;;;-5.60;99.90;;;;;;4973218;28;20918;-72
2021/12/27 04:39:19;;;;;;;16.53;7.10;;;-5.70;99.90;;;;;;4973377;28;20229;-72
2021/12/27 04:41:45;;;;;;;7.77;6.63;;;-5.60;99.90;;;;;;4973266;28;20180;-72
2021/12/27 04:44:11;;;;;;;8.43;7.80;;;-5.60;99.90;;;;;;4972716;28;20178;-72
2021/12/27 04:46:36;;;;;;;9.17;5.37;;;-5.60;99.90;;;;;;4972721;28;20253;-72
2021/12/27 04:49:02;;;;;;;12.57;7.53;;;-5.60;99.90;;;;;;4972719;28;20225;-72
2021/12/27 04:51:27;;;;;;;11.07;7.63;;;-5.50;99.90;;;;;;4972713;28;20203;-72
2021/12/27 04:53:54;;;;;;;12.83;7.10;;;-5.50;99.90;;;;;;4971273;28;20178;-72
2021/12/27 04:56:19;;;;;;;4.10;3.80;;;-5.40;99.90;;;;;;4972407;28;20252;-72
2021/12/27 04:58:46;;;;;;;9.47;6.07;;;-5.50;99.90;;;;;;4972504;28;20202;-72
2021/12/27 05:01:12;;;;;;;16.45;9.15;;;-5.40;99.90;;;;;;4972497;28;20170;-73
2021/12/27 05:03:38;;;;;;;10.57;9.55;;;-5.40;99.90;;;;;;4972499;28;20177;-72
2021/12/27 05:06:04;;;;;;;7.40;5.93;;;-5.50;99.90;;;;;;4971758;28;20672;-72
2021/12/27 05:08:29;;;;;;;8.67;6.80;;;-5.50;99.90;;;;;;4975243;28;20184;-72
2021/12/27 05:10:55;;;;;;;10.90;6.80;;;-5.50;99.90;;;;;;4978775;28;20409;-72
2021/12/27 05:13:20;;;;;;;10.60;6.00;;;-5.50;99.90;;;;;;4976850;28;20178;-73
2021/12/27 05:15:47;;;;;;;6.63;5.13;;;-5.50;99.90;;;;;;4977588;28;20193;-72
2021/12/27 05:18:13;;;;;;;14.48;6.70;;;-5.50;99.90;;;;;;4976901;28;20176;-72
2021/12/27 05:20:38;;;;;;;5.23;4.73;;;-5.40;99.90;;;;;;4976147;28;20198;-73
2021/12/27 05:23:04;;;;;;;12.20;10.37;;;-5.40;99.90;;;;;;4974564;28;20773;-74
2021/12/27 05:25:30;;;;;;;9.07;6.60;;;-5.40;99.90;;;;;;4973747;28;20190;-72
2021/12/27 05:27:55;;;;;;;5.07;4.77;;;-5.40;99.90;;;;;;4971863;28;20413;-72
2021/12/27 05:30:21;;;;;;;4.77;4.47;;;-5.40;99.90;;;;;;4972976;28;20169;-72
2021/12/27 05:32:46;;;;;;;4.10;3.53;;;-5.30;99.90;;;;;;4976682;28;20181;-71
2021/12/27 05:35:13;;;;;;;4.17;3.83;;;-5.30;99.90;;;;;;4980578;28;20224;-72
2021/12/27 05:37:39;;;;;;;5.32;4.82;;;-5.20;99.90;;;;;;4978807;28;20178;-73
2021/12/27 05:40:07;;;;;;;16.47;7.27;;;-5.20;99.90;;;;;;4976251;28;20202;-73
2021/12/27 05:42:36;;;;;;;6.50;3.60;;;-5.20;99.90;;;;;;4978980;28;20252;-73
2021/12/27 05:45:03;;;;;;;5.95;4.30;;;-5.20;99.90;;;;;;4981613;28;20275;-73
2021/12/27 05:47:29;;;;;;;10.25;5.55;;;-5.10;99.90;;;;;;4999007;28;20612;-72
2021/12/27 05:49:54;;;;;;;3.60;3.40;;;-5.10;99.90;;;;;;4976324;28;20176;-72
2021/12/27 05:52:20;;;;;;;6.67;6.00;;;-5.10;99.90;;;;;;4977478;28;20197;-72
2021/12/27 05:54:46;;;;;;;18.10;7.07;;;-5.00;99.90;;;;;;4979387;28;20220;-74
2021/12/27 05:57:11;;;;;;;3.90;3.17;;;-5.00;99.90;;;;;;4976042;28;20174;-72
2021/12/27 05:59:36;;;;;;;12.17;8.83;;;-5.00;99.90;;;;;;4972168;28;20240;-72
2021/12/27 06:02:02;;;;;;;17.97;5.47;;;-5.00;99.90;;;;;;4972232;28;20170;-72
2021/12/27 06:04:28;;;;;;;6.57;4.87;;;-4.90;99.90;;;;;;4972107;28;20205;-72
2021/12/27 06:06:53;;;;;;;8.70;8.10;;;-4.90;99.90;;;;;;4972582;28;20176;-74
2021/12/27 06:09:19;;;;;;;17.00;8.10;;;-4.90;99.90;;;;;;4973834;28;20595;-72
2021/12/27 06:11:44;;;;;;;12.97;10.20;;;-4.80;99.90;;;;;;4974310;28;20189;-72
2021/12/27 06:14:10;;;;;;;5.30;4.13;;;-4.90;99.90;;;;;;4973024;28;20249;-72
2021/12/27 06:16:35;;;;;;;8.90;5.03;;;-4.80;99.90;;;;;;4973587;28;20659;-72
2021/12/27 06:19:01;;;;;;;5.23;4.73;;;-4.70;99.90;;;;;;4975567;28;20667;-72
2021/12/27 06:21:26;;;;;;;8.70;7.60;;;-4.70;99.90;;;;;;4975635;28;20181;-74
2021/12/27 06:23:52;;;;;;;4.30;3.90;;;-4.70;99.90;;;;;;4975422;28;20703;-72
2021/12/27 06:26:18;;;;;;;6.10;5.57;;;-4.70;99.90;;;;;;4975338;28;20274;-73
2021/12/27 06:28:44;;;;;;;5.40;4.90;;;-4.60;99.90;;;;;;4975424;28;20173;-74
2021/12/27 06:31:10;;;;;;;10.32;6.60;;;-4.60;99.90;;;;;;4975470;28;20174;-74
2021/12/27 06:33:35;;;;;;;5.10;4.43;;;-4.50;99.90;;;;;;4975506;28;20262;-72
2021/12/27 06:36:01;;;;;;;9.43;6.77;;;-4.50;99.90;;;;;;4975349;28;20204;-72
2021/12/27 06:38:27;;;;;;;6.15;4.85;;;-4.50;99.90;;;;;;4975259;28;20273;-73
2021/12/27 06:40:52;;;;;;;10.63;6.80;;;-4.50;99.90;;;;;;4975610;28;20711;-72
2021/12/27 06:43:18;;;;;;;16.57;9.00;;;-4.50;99.90;;;;;;4975346;28;20648;-72
2021/12/27 06:45:43;;;;;;;8.60;6.60;;;-4.60;99.90;;;;;;4975435;28;20189;-73
2021/12/27 06:48:10;;;;;;;9.30;5.47;;;-4.60;99.90;;;;;;4975673;28;20166;-73
2021/12/27 06:50:36;;;;;;;13.13;5.35;;;-4.60;99.90;;;;;;4975524;28;20484;-74
2021/12/27 06:53:02;;;;;;;4.93;4.43;;;-4.60;99.90;;;;;;4975796;28;20180;-74
2021/12/27 06:55:27;;;;;;;13.57;6.60;;;-4.50;99.90;;;;;;4975748;28;20602;-73
2021/12/27 06:57:53;;;;;;;8.67;5.83;;;-4.50;99.90;;;;;;4975263;28;20542;-73
2021/12/27 07:00:19;;;;;;;5.17;4.47;;;-4.50;99.90;;;;;;4975207;28;20292;-73
2021/12/27 07:02:46;;;;;;;10.77;5.10;;;-4.50;99.90;;;;;;4975122;28;20549;-74
2021/12/27 07:05:12;;;;;;;8.98;6.60;;;-4.40;99.90;;;;;;4974736;28;20213;-73
2021/12/27 07:07:39;;;;;;;11.00;6.13;;;-4.40;99.90;;;;;;4974943;28;20557;-73
2021/12/27 07:10:07;;;;;;;6.43;4.43;;;-4.40;99.90;;;;;;4974780;28;20182;-73
2021/12/27 07:12:33;;;;;;;23.55;5.35;;;-4.30;99.90;;;;;;4974969;28;20540;-73
2021/12/27 07:14:59;;;;;;;5.30;4.97;;;-4.40;99.90;;;;;;4974845;28;20186;-73
2021/12/27 07:17:24;;;;;;;5.97;4.77;;;-4.30;99.90;;;;;;4975034;28;20232;-74
2021/12/27 07:19:50;;;;;;;5.40;4.67;;;-4.30;99.90;;;;;;4975240;28;20213;-74
2021/12/27 07:22:15;;;;;;;9.83;5.50;;;-4.30;99.90;;;;;;4974766;28;20170;-73
2021/12/27 07:24:41;;;;;;;8.70;7.03;;;-4.30;99.90;;;;;;4974913;28;20241;-73
2021/12/27 07:27:07;;;;;;;9.10;7.20;;;-4.20;99.90;;;;;;4974814;28;20979;-73
2021/12/27 07:29:33;;;;;;;12.80;5.90;;;-4.20;99.90;;;;;;4974095;28;20174;-74
2021/12/27 07:31:58;;;;;;;6.03;3.93;;;-4.20;99.90;;;;;;4974926;28;20405;-74
2021/12/27 07:34:24;;;;;;;4.20;4.00;;;-4.10;99.90;;;;;;4974695;28;20189;-74
2021/12/27 07:36:52;;;;;;;17.30;6.00;;;-4.10;99.90;;;;;;4974788;28;20170;-74
2021/12/27 07:39:18;;;;;;;9.85;8.15;;;-4.10;99.90;;;;;;4974927;28;20193;-74
2021/12/27 07:41:44;;;;;;;9.68;8.02;;;-4.10;99.90;;;;;;4974872;28;20221;-74
2021/12/27 07:44:10;;;;;;;4.22;4.00;;;-4.10;99.90;;;;;;4974710;28;20185;-77
2021/12/27 07:46:38;;;;;;;7.10;6.40;;;-4.00;99.90;;;;;;4975177;28;20165;-73
2021/12/27 07:49:04;;;;;;;12.75;7.50;;;-4.10;99.90;;;;;;4977784;28;20216;-73
2021/12/27 07:51:29;;;;;;;8.30;5.50;;;-4.10;99.90;;;;;;4974569;28;20650;-73
2021/12/27 07:53:55;;;;;;;10.13;6.50;;;-4.10;99.90;;;;;;4975530;28;20178;-74
2021/12/27 07:56:20;;;;;;;4.90;4.50;;;-4.10;99.90;;;;;;4974528;28;20209;-75
2021/12/27 07:58:46;;;;;;;14.57;6.50;;;-4.00;99.90;;;;;;4974258;28;20194;-72
2021/12/27 08:01:11;;;;;;;3.87;3.13;;;-4.00;99.90;;;;;;4986343;28;20160;-73
2021/12/27 08:03:37;;;;;;;7.33;6.60;;;-4.00;99.90;;;;;;4990816;28;20173;-73
2021/12/27 08:06:03;;;;;;;10.03;8.10;;;-4.00;99.90;;;;;;4993163;28;20295;-73
2021/12/27 08:08:28;;;;;;;12.53;5.93;;;-4.00;99.90;;;;;;4990957;28;20169;-72
2021/12/27 08:10:54;;;;;;;11.20;10.07;;;-4.00;99.90;;;;;;4994799;28;20177;-72
2021/12/27 08:13:20;;;;;;;6.45;6.05;;;-4.00;99.90;;;;;;4994689;28;20177;-72
2021/12/27 08:15:46;;;;;;;4.95;4.55;;;-3.90;99.90;;;;;;4998149;28;20215;-73
2021/12/27 08:18:11;;;;;;;19.47;7.67;;;-3.90;99.90;;;;;;5000543;28;20177;-74
2021/12/27 08:20:37;;;;;;;2.80;2.57;;;-3.80;99.90;;;;;;5005875;28;20173;-73
2021/12/27 08:23:02;;;;;;;7.47;4.73;;;-3.70;99.90;;;;;;5000405;28;20169;-72
2021/12/27 08:25:28;;;;;;;5.57;5.27;;;-3.70;99.90;;;;;;5003869;28;20189;-73
2021/12/27 08:27:53;;;;;;;7.67;5.87;;;-3.60;99.90;;;;;;5005332;28;20177;-73
2021/12/27 08:30:19;;;;;;;11.33;7.77;;;-3.60;99.90;;;;;;5002225;28;20252;-73
2021/12/27 08:32:46;;;;;;;25.57;9.73;;;-3.50;99.90;;;;;;4997289;28;20181;-71
2021/12/27 08:35:13;;;;;;;13.45;5.93;;;-3.50;99.90;;;;;;4992090;28;20197;-72
2021/12/27 08:37:40;;;;;;;9.20;5.80;;;-3.50;99.90;;;;;;4992385;28;20172;-73
2021/12/27 08:40:07;;;;;;;4.70;3.80;;;-3.60;99.90;;;;;;4992331;28;20203;-72
2021/12/27 08:42:33;;;;;;;13.70;5.10;;;-3.50;99.90;;;;;;4992472;28;20270;-73
2021/12/27 08:44:58;;;;;;;7.57;6.70;;;-3.50;99.90;;;;;;4992122;28;20217;-72
2021/12/27 08:47:24;;;;;;;17.67;7.73;;;-3.50;99.90;;;;;;4992257;28;20435;-72
2021/12/27 08:49:50;;;;;;;15.17;9.60;;;-3.40;99.90;;;;;;4992162;28;20580;-74
2021/12/27 08:52:16;;;;;;;5.40;4.90;;;-3.40;99.90;;;;;;4992142;28;20228;-72
2021/12/27 08:54:41;;;;;;;8.10;6.77;;;-3.40;99.90;;;;;;4992098;28;20272;-72
2021/12/27 08:57:09;;;;;;;14.13;7.23;;;-3.40;99.90;;;;;;4992075;28;20412;-73
2021/12/27 08:59:36;;;;;;;3.53;3.33;;;-3.40;99.90;;;;;;4992260;28;20614;-73
2021/12/27 09:02:03;;;;;;;7.40;6.57;;;-3.30;99.90;;;;;;4990564;28;20614;-72
2021/12/27 09:04:29;;;;;;;5.55;5.03;;;-3.20;99.90;;;;;;4991612;28;20207;-73
2021/12/27 09:06:54;;;;;;;8.53;4.13;;;-3.20;99.90;;;;;;4992003;28;20168;-73
2021/12/27 09:09:21;;;;;;;16.03;7.77;;;-3.20;99.90;;;;;;4996204;28;20655;-73
2021/12/27 09:11:47;;;;;;;4.93;4.53;;;-3.20;99.90;;;;;;4991678;28;20177;-73
2021/12/27 09:14:13;;;;;;;9.00;5.73;;;-3.20;99.90;;;;;;4991828;28;20781;-73
2021/12/27 09:16:39;;;;;;;22.10;9.77;;;-3.10;99.90;;;;;;4991733;28;20416;-75
2021/12/27 09:19:05;;;;;;;9.33;6.47;;;-3.00;99.90;;;;;;4991637;28;21099;-73
2021/12/27 09:21:30;;;;;;;6.73;6.03;;;-2.90;99.90;;;;;;4990412;28;20184;-73
2021/12/27 09:23:56;;;;;;;5.23;4.83;;;-2.90;99.90;;;;;;4991669;28;20404;-74
2021/12/27 09:26:21;;;;;;;6.27;5.77;;;-2.70;99.90;;;;;;4991444;28;20296;-70
2021/12/27 09:28:47;;;;;;;21.37;6.73;;;-2.70;99.90;;;;;;4991842;28;20180;-74
2021/12/27 09:31:12;;;;;;;12.33;4.17;;;-2.60;99.90;;;;;;4992074;28;20181;-75
2021/12/27 09:33:38;;;;;;;9.47;6.33;;;-2.60;99.90;;;;;;4991524;28;20186;-75
2021/12/27 09:36:04;;;;;;;24.30;8.10;;;-2.70;99.90;;;;;;4991305;28;20287;-72
2021/12/27 09:38:29;;;;;;;9.93;5.60;;;-2.60;99.90;;;;;;4991264;28;20288;-73
2021/12/27 09:40:55;;;;;;;6.47;5.37;;;-2.50;99.90;;;;;;4991350;28;20963;-73
2021/12/27 09:43:23;;;;;;;14.77;7.10;;;-2.40;99.90;;;;;;4991720;28;20278;-73
2021/12/27 09:45:48;;;;;;;34.30;6.67;;;-2.50;99.90;;;;;;4991451;28;20968;-73
2021/12/27 09:48:14;;;;;;;15.37;7.97;;;-2.50;99.90;;;;;;4991432;28;20416;-72
2021/12/27 09:50:49;;;;;;;7.93;7.20;;;-2.50;99.90;;;;;;4976505;28;20190;-75
2021/12/27 09:53:15;;;;;;;11.10;8.37;;;-2.50;99.90;;;;;;4975024;28;20236;-73
2021/12/27 09:55:40;;;;;;;11.83;5.43;;;-2.40;99.90;;;;;;4990827;28;20441;-74
2021/12/27 09:58:06;;;;;;;6.83;6.10;;;-2.50;99.90;;;;;;4976064;28;20633;-74
2021/12/27 10:00:33;;;;;;;5.43;4.93;;;-2.50;99.90;;;;;;4974704;28;20186;-72
2021/12/27 10:02:59;;;;;;;5.53;5.13;;;-2.50;99.90;;;;;;4989376;28;20184;-74
2021/12/27 10:05:27;;;;;;;4.30;3.90;;;-2.40;99.90;;;;;;5013269;23;20508;-71
2021/12/27 10:07:54;;;;;;;17.53;8.40;;;-2.40;99.90;;;;;;4977075;28;20425;-70
2021/12/27 10:10:20;;;;;;;6.77;5.47;;;-2.30;99.90;;;;;;4976620;28;20420;-70
2021/12/27 10:12:47;;;;;;;7.03;4.73;;;-2.40;99.90;;;;;;4976954;28;20405;-70
2021/12/27 10:15:19;;;;;;;23.90;7.27;;;-2.50;99.90;;;;;;4976566;28;20413;-70
2021/12/27 10:17:46;;;;;;;13.40;6.03;;;-2.40;99.90;;;;;;4977253;28;20393;-70
2021/12/27 10:20:13;;;;;;;7.73;7.03;;;-2.30;99.90;;;;;;4976607;28;20460;-70
2021/12/27 10:22:42;;;;;;;9.93;6.33;;;-2.20;99.90;;;;;;4975814;28;20421;-70
2021/12/27 10:25:12;;;;;;;6.50;6.10;;;-2.20;99.90;;;;;;4976404;28;20950;-69
2021/12/27 10:27:38;;;;;;;12.90;9.17;;;-2.20;99.90;;;;;;4975333;28;20421;-69
2021/12/27 10:30:19;;;;;;;6.53;4.33;;;-2.10;99.90;;;;;;4976426;28;20416;-70
2021/12/27 10:33:06;;;;;;;10.07;7.80;;;-2.10;99.90;;;;;;4976667;28;20935;-70
2021/12/27 10:35:58;;;;;;;7.60;5.40;;;-2.00;99.90;;;;;;4976257;28;20424;-70
2021/12/27 10:38:31;;;;;;;16.93;5.20;;;-2.00;99.90;;;;;;4974013;28;20517;-69
2021/12/27 10:41:03;;;;;;;6.53;5.80;;;-1.90;99.90;;;;;;4976681;28;20991;-69
2021/12/27 10:43:38;;;;;;;7.13;5.13;;;-1.80;99.90;;;;;;4976380;28;20413;-70
2021/12/27 10:46:06;;;;;;;6.27;5.57;;;-1.70;99.90;;;;;;4975923;28;20800;-70
2021/12/27 10:48:37;;;;;;;9.63;6.97;;;-1.60;99.90;;;;;;4976094;28;20413;-70
2021/12/27 10:51:05;;;;;;;15.67;6.40;;;-1.40;99.90;;;;;;4976206;28;20409;-69
2021/12/27 10:53:51;;;;;;;14.90;6.97;;;-1.20;99.90;;;;;;4976025;28;20405;-70
2021/12/27 10:56:18;;;;;;;6.70;4.90;;;-1.30;99.90;;;;;;4975827;28;20447;-71
2021/12/27 10:58:56;;;;;;;17.53;7.03;;;-1.30;99.90;;;;;;4975750;28;20456;-71
2021/12/27 11:01:26;;;;;;;11.60;6.73;;;-1.40;99.90;;;;;;4975780;28;21046;-71
2021/12/27 11:03:54;;;;;;;8.07;4.97;;;-1.50;99.90;;;;;;4974793;28;20496;-71
2021/12/27 11:06:29;;;;;;;11.70;6.17;;;-1.50;99.90;;;;;;4974502;28;20533;-71
2021/12/27 11:08:55;;;;;;;13.20;5.67;;;-1.50;99.90;;;;;;4977198;28;20444;-71
2021/12/27 11:11:24;;;;;;;11.60;5.30;;;-1.50;99.90;;;;;;4975528;28;20421;-70
2021/12/27 11:13:53;;;;;;;9.20;4.23;;;-1.60;99.90;;;;;;4975385;28;20500;-71
2021/12/27 11:16:18;;;;;;;10.53;5.80;;;-1.70;99.90;;;;;;4975805;28;20432;-71
2021/12/27 11:18:45;;;;;;;14.67;9.80;;;-1.70;99.90;;;;;;4975507;28;20452;-70
2021/12/27 11:21:17;;;;;;;11.67;6.33;;;-1.60;99.90;;;;;;4975620;28;20248;-70
2021/12/27 11:23:47;;;;;;;8.40;3.90;;;-1.60;99.90;;;;;;4975518;28;20397;-71
2021/12/27 11:26:15;;;;;;;7.97;6.70;;;-1.40;99.90;;;;;;4982108;28;20536;-70
2021/12/27 11:28:44;;;;;;;7.23;6.50;;;-1.40;99.90;;;;;;4968130;28;20405;-71
2021/12/27 11:31:31;;;;;;;7.73;5.53;;;-1.40;99.90;;;;;;4975924;28;20415;-71
2021/12/27 11:34:05;;;;;;;13.27;6.00;;;-1.30;99.90;;;;;;4975436;28;20409;-70
2021/12/27 11:36:32;;;;;;;9.00;6.33;;;-1.20;99.90;;;;;;4975744;28;20431;-70
2021/12/27 11:39:00;;;;;;;6.33;5.83;;;-1.10;99.90;;;;;;4975560;28;20549;-69
2021/12/27 11:41:28;;;;;;;10.63;6.17;;;-1.00;99.90;;;;;;4975702;28;20405;-70
2021/12/27 11:44:01;;;;;;;16.90;6.20;;;-1.00;99.90;;;;;;4962240;28;20421;-70
2021/12/27 11:46:31;;;;;;;12.07;6.93;;;-1.00;99.90;;;;;;4972849;28;20469;-70
2021/12/27 11:48:59;;;;;;;10.53;6.60;;;-1.00;99.90;;;;;;4975467;28;20810;-70
2021/12/27 11:51:38;;;;;;;7.53;6.00;;;-0.90;99.90;;;;;;4975038;28;20917;-70
2021/12/27 11:54:05;;;;;;;5.67;5.10;;;-0.90;99.90;;;;;;4974929;28;20401;-70
2021/12/27 11:56:46;;;;;;;16.27;5.20;;;-0.80;99.90;;;;;;4974734;28;20441;-69
2021/12/27 11:59:37;;;;;;;11.17;8.60;;;-0.80;99.90;;;;;;4955786;28;20532;-70
2021/12/27 12:02:24;;;;;;;8.17;7.33;;;-0.90;99.90;;;;;;4967772;28;20412;-70
2021/12/27 12:04:52;;;;;;;8.30;6.80;;;-0.80;99.90;;;;;;4974623;28;20413;-71
2021/12/27 12:07:33;;;;;;;16.23;7.70;;;-0.80;99.90;;;;;;4989415;28;20445;-70
2021/12/27 12:10:11;;;;;;;7.03;6.10;;;-0.80;99.90;;;;;;4973522;28;20427;-69
2021/12/27 12:12:38;;;;;;;8.17;4.97;;;-0.70;99.90;;;;;;4965580;28;20433;-70
2021/12/27 12:15:05;;;;;;;8.23;5.50;;;-0.70;99.90;;;;;;4954686;28;20916;-70
2021/12/27 12:17:48;;;;;;;12.80;7.00;;;-0.60;99.90;;;;;;4955200;28;20830;-70
2021/12/27 12:20:35;;;;;;;12.73;6.20;;;-0.60;99.90;;;;;;4955845;28;20454;-71
2021/12/27 12:23:06;;;;;;;6.87;5.77;;;-0.60;99.90;;;;;;4955753;28;20560;-70
2021/12/27 12:25:33;;;;;;;6.07;5.47;;;-0.60;99.90;;;;;;4962454;28;20433;-70
2021/12/27 12:28:11;;;;;;;7.93;5.77;;;-0.60;99.90;;;;;;4974512;28;20496;-70
2021/12/27 12:30:38;;;;;;;11.27;9.87;;;-0.60;99.90;;;;;;4974322;28;20527;-70
2021/12/27 12:33:08;;;;;;;9.23;8.33;;;-0.60;99.90;;;;;;4973977;28;20409;-70
2021/12/27 12:35:38;;;;;;;11.30;6.30;;;-0.60;99.90;;;;;;4973895;28;20951;-72
2021/12/27 12:38:15;;;;;;;10.53;6.47;;;-0.60;99.90;;;;;;4973729;28;20417;-69
2021/12/27 12:40:41;;;;;;;7.77;6.60;;;-0.50;99.90;;;;;;4973892;28;20862;-69
2021/12/27 12:43:07;;;;;;;12.13;5.97;;;-0.50;99.90;;;;;;4973692;28;20413;-70
2021/12/27 12:45:35;;;;;;;12.10;6.63;;;-0.50;99.90;;;;;;4974034;28;20416;-69
2021/12/27 12:48:00;;;;;;;9.13;7.63;;;-0.40;99.90;;;;;;4973828;28;20170;-70
2021/12/27 12:50:26;;;;;;;11.90;8.10;;;-0.50;99.90;;;;;;4973681;28;20444;-71